sensor_id;sensor_type;location;lat;lon;timestamp;P1;durP1;ratioP1;P2;durP2;ratioP2
19084;SDS011;9675;51.538;6.728;2024-03-23T00:56:02;7.40;;;1.40;;
19084;SDS011;9675;51.538;6.728;2024-03-23T00:58:29;7.00;;;1.40;;
19084;SDS011;9675;51.538;6.728;2024-03-23T01:00:55;5.70;;;0.80;;
19084;SDS011;9675;51.538;6.728;2024-03-23T01:03:22;3.73;;;0.67;;
19084;SDS011;9675;51.538;6.728;2024-03-23T01:05:48;8.73;;;1.10;;
19084;SDS011;9675;51.538;6.728;2024-03-23T01:08:15;1.53;;;0.60;;
19084;SDS011;9675;51.538;6.728;2024-03-23T01:10:43;4.70;;;0.83;;
19084;SDS011;9675;51.538;6.728;2024-03-23T01:13:21;4.53;;;0.70;;
19084;SDS011;9675;51.538;6.728;2024-03-23T01:15:48;3.17;;;0.70;;
19084;SDS011;9675;51.538;6.728;2024-03-23T01:18:16;2.90;;;1.00;;
19084;SDS011;9675;51.538;6.728;2024-03-23T01:20:43;3.33;;;1.33;;
19084;SDS011;9675;51.538;6.728;2024-03-23T01:23:10;2.37;;;1.07;;
19084;SDS011;9675;51.538;6.728;2024-03-23T01:25:37;4.13;;;1.53;;
19084;SDS011;9675;51.538;6.728;2024-03-23T01:28:05;4.37;;;1.10;;
19084;SDS011;9675;51.538;6.728;2024-03-23T01:30:32;2.87;;;0.80;;
19084;SDS011;9675;51.538;6.728;2024-03-23T01:32:59;2.67;;;0.87;;
19084;SDS011;9675;51.538;6.728;2024-03-23T01:35:25;5.97;;;0.73;;
19084;SDS011;9675;51.538;6.728;2024-03-23T01:37:52;9.87;;;1.67;;
19084;SDS011;9675;51.538;6.728;2024-03-23T01:40:18;2.10;;;0.80;;
19084;SDS011;9675;51.538;6.728;2024-03-23T01:42:54;6.37;;;1.00;;
19084;SDS011;9675;51.538;6.728;2024-03-23T01:45:23;2.20;;;0.60;;
19084;SDS011;9675;51.538;6.728;2024-03-23T01:47:50;1.10;;;0.83;;
19084;SDS011;9675;51.538;6.728;2024-03-23T01:50:17;2.30;;;0.83;;
19084;SDS011;9675;51.538;6.728;2024-03-23T01:52:45;2.03;;;0.60;;
19084;SDS011;9675;51.538;6.728;2024-03-23T01:55:11;2.67;;;1.30;;
19084;SDS011;9675;51.538;6.728;2024-03-23T01:57:38;2.13;;;0.60;;
19084;SDS011;9675;51.538;6.728;2024-03-23T02:00:05;4.77;;;0.80;;
19084;SDS011;9675;51.538;6.728;2024-03-23T02:02:35;4.00;;;1.23;;
19084;SDS011;9675;51.538;6.728;2024-03-23T02:05:02;2.10;;;0.80;;
19084;SDS011;9675;51.538;6.728;2024-03-23T02:07:29;3.07;;;0.60;;
19084;SDS011;9675;51.538;6.728;2024-03-23T02:09:55;3.17;;;0.97;;
19084;SDS011;9675;51.538;6.728;2024-03-23T02:12:22;2.13;;;0.60;;
19084;SDS011;9675;51.538;6.728;2024-03-23T02:14:49;9.40;;;1.10;;
19084;SDS011;9675;51.538;6.728;2024-03-23T02:17:17;3.70;;;0.70;;
19084;SDS011;9675;51.538;6.728;2024-03-23T02:19:45;3.70;;;0.70;;
19084;SDS011;9675;51.538;6.728;2024-03-23T02:22:11;7.53;;;0.67;;
19084;SDS011;9675;51.538;6.728;2024-03-23T02:24:40;3.23;;;0.80;;
19084;SDS011;9675;51.538;6.728;2024-03-23T02:27:06;1.93;;;0.80;;
19084;SDS011;9675;51.538;6.728;2024-03-23T02:29:33;3.00;;;0.93;;
19084;SDS011;9675;51.538;6.728;2024-03-23T02:31:59;3.47;;;0.73;;
19084;SDS011;9675;51.538;6.728;2024-03-23T02:34:26;2.83;;;0.90;;
19084;SDS011;9675;51.538;6.728;2024-03-23T02:36:52;4.23;;;1.00;;
19084;SDS011;9675;51.538;6.728;2024-03-23T02:39:19;3.13;;;0.70;;
19084;SDS011;9675;51.538;6.728;2024-03-23T02:41:47;4.17;;;0.90;;
19084;SDS011;9675;51.538;6.728;2024-03-23T02:44:14;3.63;;;0.83;;
19084;SDS011;9675;51.538;6.728;2024-03-23T02:46:40;3.43;;;0.60;;
19084;SDS011;9675;51.538;6.728;2024-03-23T02:49:07;4.77;;;0.97;;
19084;SDS011;9675;51.538;6.728;2024-03-23T02:51:33;4.80;;;0.73;;
19084;SDS011;9675;51.538;6.728;2024-03-23T02:54:00;5.90;;;0.93;;
19084;SDS011;9675;51.538;6.728;2024-03-23T02:56:26;3.70;;;0.90;;
19084;SDS011;9675;51.538;6.728;2024-03-23T02:58:55;3.80;;;0.87;;
19084;SDS011;9675;51.538;6.728;2024-03-23T03:01:20;5.17;;;1.00;;
19084;SDS011;9675;51.538;6.728;2024-03-23T03:03:48;4.97;;;1.30;;
19084;SDS011;9675;51.538;6.728;2024-03-23T03:06:22;4.97;;;0.90;;
19084;SDS011;9675;51.538;6.728;2024-03-23T03:08:50;2.30;;;0.77;;
19084;SDS011;9675;51.538;6.728;2024-03-23T03:11:16;2.67;;;0.53;;
19084;SDS011;9675;51.538;6.728;2024-03-23T03:13:43;6.20;;;0.80;;
19084;SDS011;9675;51.538;6.728;2024-03-23T03:16:10;4.60;;;1.00;;
19084;SDS011;9675;51.538;6.728;2024-03-23T03:18:38;1.80;;;0.63;;
19084;SDS011;9675;51.538;6.728;2024-03-23T03:21:05;2.27;;;1.00;;
19084;SDS011;9675;51.538;6.728;2024-03-23T03:23:35;2.03;;;0.50;;
19084;SDS011;9675;51.538;6.728;2024-03-23T03:26:02;1.57;;;0.60;;
19084;SDS011;9675;51.538;6.728;2024-03-23T03:28:30;3.77;;;0.80;;
19084;SDS011;9675;51.538;6.728;2024-03-23T03:30:57;3.07;;;1.00;;
19084;SDS011;9675;51.538;6.728;2024-03-23T03:33:27;6.60;;;0.67;;
19084;SDS011;9675;51.538;6.728;2024-03-23T03:35:53;0.90;;;0.50;;
19084;SDS011;9675;51.538;6.728;2024-03-23T03:38:20;3.17;;;0.67;;
19084;SDS011;9675;51.538;6.728;2024-03-23T03:40:46;6.90;;;1.23;;
19084;SDS011;9675;51.538;6.728;2024-03-23T03:43:13;2.70;;;0.70;;
19084;SDS011;9675;51.538;6.728;2024-03-23T03:45:39;4.20;;;0.90;;
19084;SDS011;9675;51.538;6.728;2024-03-23T03:48:07;4.53;;;0.50;;
19084;SDS011;9675;51.538;6.728;2024-03-23T03:50:34;2.97;;;0.80;;
19084;SDS011;9675;51.538;6.728;2024-03-23T03:53:02;11.73;;;0.97;;
19084;SDS011;9675;51.538;6.728;2024-03-23T03:55:28;3.27;;;0.57;;
19084;SDS011;9675;51.538;6.728;2024-03-23T03:57:55;2.90;;;0.80;;
19084;SDS011;9675;51.538;6.728;2024-03-23T04:00:21;2.83;;;0.70;;
19084;SDS011;9675;51.538;6.728;2024-03-23T04:02:48;1.87;;;0.70;;
19084;SDS011;9675;51.538;6.728;2024-03-23T04:05:14;5.20;;;1.20;;
19084;SDS011;9675;51.538;6.728;2024-03-23T04:07:42;4.57;;;1.10;;
19084;SDS011;9675;51.538;6.728;2024-03-23T04:10:09;4.37;;;1.13;;
19084;SDS011;9675;51.538;6.728;2024-03-23T04:12:36;8.10;;;1.07;;
19084;SDS011;9675;51.538;6.728;2024-03-23T04:15:02;3.70;;;0.77;;
19084;SDS011;9675;51.538;6.728;2024-03-23T04:17:30;4.20;;;1.00;;
19084;SDS011;9675;51.538;6.728;2024-03-23T04:19:58;3.00;;;1.00;;
19084;SDS011;9675;51.538;6.728;2024-03-23T04:22:25;3.43;;;0.87;;
19084;SDS011;9675;51.538;6.728;2024-03-23T04:24:53;5.40;;;1.30;;
19084;SDS011;9675;51.538;6.728;2024-03-23T04:27:21;11.23;;;1.13;;
19084;SDS011;9675;51.538;6.728;2024-03-23T04:29:47;3.33;;;0.67;;
19084;SDS011;9675;51.538;6.728;2024-03-23T04:32:15;3.17;;;1.10;;
19084;SDS011;9675;51.538;6.728;2024-03-23T04:34:41;7.77;;;1.20;;
19084;SDS011;9675;51.538;6.728;2024-03-23T04:37:10;3.87;;;1.20;;
19084;SDS011;9675;51.538;6.728;2024-03-23T04:39:37;9.30;;;1.50;;
19084;SDS011;9675;51.538;6.728;2024-03-23T04:42:06;5.67;;;1.33;;
19084;SDS011;9675;51.538;6.728;2024-03-23T04:44:33;1.33;;;0.87;;
19084;SDS011;9675;51.538;6.728;2024-03-23T04:47:00;9.67;;;2.20;;
19084;SDS011;9675;51.538;6.728;2024-03-23T04:49:27;3.77;;;0.83;;
19084;SDS011;9675;51.538;6.728;2024-03-23T04:51:54;3.37;;;1.47;;
19084;SDS011;9675;51.538;6.728;2024-03-23T04:54:21;12.07;;;1.60;;
19084;SDS011;9675;51.538;6.728;2024-03-23T04:56:48;5.20;;;1.30;;
19084;SDS011;9675;51.538;6.728;2024-03-23T04:59:15;5.53;;;1.40;;
19084;SDS011;9675;51.538;6.728;2024-03-23T05:01:42;3.13;;;1.30;;
19084;SDS011;9675;51.538;6.728;2024-03-23T05:04:08;5.87;;;1.80;;
19084;SDS011;9675;51.538;6.728;2024-03-23T05:06:35;6.67;;;1.70;;
19084;SDS011;9675;51.538;6.728;2024-03-23T05:09:01;9.87;;;2.00;;
19084;SDS011;9675;51.538;6.728;2024-03-23T05:11:31;5.00;;;1.57;;
19084;SDS011;9675;51.538;6.728;2024-03-23T05:13:57;5.20;;;1.47;;
19084;SDS011;9675;51.538;6.728;2024-03-23T05:16:26;7.40;;;2.13;;
19084;SDS011;9675;51.538;6.728;2024-03-23T05:18:52;9.20;;;2.50;;
19084;SDS011;9675;51.538;6.728;2024-03-23T05:21:19;6.77;;;2.40;;
19084;SDS011;9675;51.538;6.728;2024-03-23T05:23:45;7.50;;;1.80;;
19084;SDS011;9675;51.538;6.728;2024-03-23T05:26:12;5.37;;;1.50;;
19084;SDS011;9675;51.538;6.728;2024-03-23T05:28:38;5.57;;;1.60;;
19084;SDS011;9675;51.538;6.728;2024-03-23T05:31:06;8.90;;;1.60;;
19084;SDS011;9675;51.538;6.728;2024-03-23T05:33:35;4.27;;;1.27;;
19084;SDS011;9675;51.538;6.728;2024-03-23T05:36:03;5.40;;;1.83;;
19084;SDS011;9675;51.538;6.728;2024-03-23T05:38:31;3.93;;;1.93;;
19084;SDS011;9675;51.538;6.728;2024-03-23T05:40:58;4.23;;;1.80;;
19084;SDS011;9675;51.538;6.728;2024-03-23T05:43:26;4.00;;;1.67;;
19084;SDS011;9675;51.538;6.728;2024-03-23T05:45:53;5.57;;;1.90;;
19084;SDS011;9675;51.538;6.728;2024-03-23T05:48:20;8.03;;;1.97;;
19084;SDS011;9675;51.538;6.728;2024-03-23T05:50:49;7.27;;;2.83;;
19084;SDS011;9675;51.538;6.728;2024-03-23T05:53:15;12.03;;;3.10;;
19084;SDS011;9675;51.538;6.728;2024-03-23T05:55:43;14.80;;;5.17;;
19084;SDS011;9675;51.538;6.728;2024-03-23T05:58:10;7.90;;;2.80;;
19084;SDS011;9675;51.538;6.728;2024-03-23T06:00:37;12.80;;;2.63;;
19084;SDS011;9675;51.538;6.728;2024-03-23T06:03:04;8.83;;;3.07;;
19084;SDS011;9675;51.538;6.728;2024-03-23T06:05:31;8.10;;;3.20;;
19084;SDS011;9675;51.538;6.728;2024-03-23T06:07:59;13.03;;;2.83;;
19084;SDS011;9675;51.538;6.728;2024-03-23T06:10:25;10.03;;;4.27;;
19084;SDS011;9675;51.538;6.728;2024-03-23T06:12:52;9.47;;;3.23;;
19084;SDS011;9675;51.538;6.728;2024-03-23T06:15:19;3.80;;;1.97;;
19084;SDS011;9675;51.538;6.728;2024-03-23T06:17:45;5.70;;;2.70;;
19084;SDS011;9675;51.538;6.728;2024-03-23T06:20:12;6.67;;;2.77;;
19084;SDS011;9675;51.538;6.728;2024-03-23T06:22:38;6.27;;;2.73;;
19084;SDS011;9675;51.538;6.728;2024-03-23T06:25:07;9.40;;;3.63;;
19084;SDS011;9675;51.538;6.728;2024-03-23T06:27:34;12.93;;;5.83;;
19084;SDS011;9675;51.538;6.728;2024-03-23T06:30:01;17.17;;;5.53;;
19084;SDS011;9675;51.538;6.728;2024-03-23T06:32:27;8.20;;;3.10;;
19084;SDS011;9675;51.538;6.728;2024-03-23T06:34:55;8.67;;;2.90;;
19084;SDS011;9675;51.538;6.728;2024-03-23T06:37:21;12.27;;;5.47;;
19084;SDS011;9675;51.538;6.728;2024-03-23T06:39:48;11.90;;;2.50;;
19084;SDS011;9675;51.538;6.728;2024-03-23T06:42:15;10.87;;;3.47;;
19084;SDS011;9675;51.538;6.728;2024-03-23T06:44:43;9.90;;;3.27;;
19084;SDS011;9675;51.538;6.728;2024-03-23T06:47:09;8.57;;;3.17;;
19084;SDS011;9675;51.538;6.728;2024-03-23T06:49:36;9.80;;;3.03;;
19084;SDS011;9675;51.538;6.728;2024-03-23T06:52:02;7.90;;;2.93;;
19084;SDS011;9675;51.538;6.728;2024-03-23T06:54:30;3.10;;;1.60;;
19084;SDS011;9675;51.538;6.728;2024-03-23T06:56:56;6.23;;;2.33;;
19084;SDS011;9675;51.538;6.728;2024-03-23T06:59:24;4.27;;;1.87;;
19084;SDS011;9675;51.538;6.728;2024-03-23T07:01:50;10.20;;;2.63;;
19084;SDS011;9675;51.538;6.728;2024-03-23T07:04:17;7.43;;;2.23;;
19084;SDS011;9675;51.538;6.728;2024-03-23T07:06:44;6.90;;;2.80;;
19084;SDS011;9675;51.538;6.728;2024-03-23T07:09:12;11.97;;;2.43;;
19084;SDS011;9675;51.538;6.728;2024-03-23T07:11:38;6.27;;;2.73;;
19084;SDS011;9675;51.538;6.728;2024-03-23T07:14:05;9.73;;;2.70;;
19084;SDS011;9675;51.538;6.728;2024-03-23T07:16:32;9.13;;;2.50;;
19084;SDS011;9675;51.538;6.728;2024-03-23T07:18:59;15.47;;;4.20;;
19084;SDS011;9675;51.538;6.728;2024-03-23T07:21:25;9.47;;;2.67;;
19084;SDS011;9675;51.538;6.728;2024-03-23T07:23:52;10.33;;;3.03;;
19084;SDS011;9675;51.538;6.728;2024-03-23T07:26:18;8.27;;;2.50;;
19084;SDS011;9675;51.538;6.728;2024-03-23T07:28:45;9.47;;;1.97;;
19084;SDS011;9675;51.538;6.728;2024-03-23T07:31:12;8.37;;;1.63;;
19084;SDS011;9675;51.538;6.728;2024-03-23T07:33:45;8.93;;;2.97;;
19084;SDS011;9675;51.538;6.728;2024-03-23T07:36:13;9.70;;;3.07;;
19084;SDS011;9675;51.538;6.728;2024-03-23T07:38:40;15.30;;;3.77;;
19084;SDS011;9675;51.538;6.728;2024-03-23T07:41:07;14.87;;;4.13;;
19084;SDS011;9675;51.538;6.728;2024-03-23T07:43:36;10.17;;;2.70;;
19084;SDS011;9675;51.538;6.728;2024-03-23T07:46:03;12.63;;;3.10;;
19084;SDS011;9675;51.538;6.728;2024-03-23T07:48:33;14.87;;;3.53;;
19084;SDS011;9675;51.538;6.728;2024-03-23T07:51:02;10.03;;;3.37;;
19084;SDS011;9675;51.538;6.728;2024-03-23T07:53:32;9.70;;;3.93;;
19084;SDS011;9675;51.538;6.728;2024-03-23T07:56:01;7.97;;;2.53;;
19084;SDS011;9675;51.538;6.728;2024-03-23T07:58:32;4.40;;;2.03;;
19084;SDS011;9675;51.538;6.728;2024-03-23T08:01:03;8.07;;;2.60;;
19084;SDS011;9675;51.538;6.728;2024-03-23T08:03:32;4.50;;;1.67;;
19084;SDS011;9675;51.538;6.728;2024-03-23T08:06:07;6.90;;;2.73;;
19084;SDS011;9675;51.538;6.728;2024-03-23T08:08:35;10.20;;;3.10;;
19084;SDS011;9675;51.538;6.728;2024-03-23T08:11:02;7.33;;;1.87;;
19084;SDS011;9675;51.538;6.728;2024-03-23T08:13:29;11.17;;;2.87;;
19084;SDS011;9675;51.538;6.728;2024-03-23T08:15:56;7.87;;;2.53;;
19084;SDS011;9675;51.538;6.728;2024-03-23T08:18:23;5.37;;;1.03;;
19084;SDS011;9675;51.538;6.728;2024-03-23T08:20:56;5.90;;;2.60;;
19084;SDS011;9675;51.538;6.728;2024-03-23T08:23:25;8.67;;;1.93;;
19084;SDS011;9675;51.538;6.728;2024-03-23T08:25:57;5.57;;;1.80;;
19084;SDS011;9675;51.538;6.728;2024-03-23T08:28:24;7.27;;;1.47;;
19084;SDS011;9675;51.538;6.728;2024-03-23T08:30:51;9.77;;;2.90;;
19084;SDS011;9675;51.538;6.728;2024-03-23T08:33:18;3.87;;;1.07;;
19084;SDS011;9675;51.538;6.728;2024-03-23T08:35:52;10.03;;;2.20;;
19084;SDS011;9675;51.538;6.728;2024-03-23T08:38:20;3.27;;;1.67;;
19084;SDS011;9675;51.538;6.728;2024-03-23T08:40:55;9.17;;;1.83;;
19084;SDS011;9675;51.538;6.728;2024-03-23T08:43:22;0.33;;;0.33;;
19084;SDS011;9675;51.538;6.728;2024-03-23T08:45:49;5.07;;;1.93;;
19084;SDS011;9675;51.538;6.728;2024-03-23T08:48:15;3.50;;;1.80;;
19084;SDS011;9675;51.538;6.728;2024-03-23T08:50:43;8.07;;;1.47;;
19084;SDS011;9675;51.538;6.728;2024-03-23T08:53:09;5.53;;;2.30;;
19084;SDS011;9675;51.538;6.728;2024-03-23T08:55:36;4.47;;;1.00;;
19084;SDS011;9675;51.538;6.728;2024-03-23T08:58:03;8.03;;;1.90;;
19084;SDS011;9675;51.538;6.728;2024-03-23T09:00:33;6.73;;;1.80;;
19084;SDS011;9675;51.538;6.728;2024-03-23T09:02:59;5.20;;;1.80;;
19084;SDS011;9675;51.538;6.728;2024-03-23T09:05:28;7.87;;;2.07;;
19084;SDS011;9675;51.538;6.728;2024-03-23T09:07:55;1.27;;;0.47;;
19084;SDS011;9675;51.538;6.728;2024-03-23T09:10:22;7.33;;;1.43;;
19084;SDS011;9675;51.538;6.728;2024-03-23T09:12:48;2.00;;;0.93;;
19084;SDS011;9675;51.538;6.728;2024-03-23T09:15:17;5.37;;;2.03;;
19084;SDS011;9675;51.538;6.728;2024-03-23T09:17:43;11.33;;;1.47;;
19084;SDS011;9675;51.538;6.728;2024-03-23T09:20:10;2.37;;;1.27;;
19084;SDS011;9675;51.538;6.728;2024-03-23T09:22:36;7.20;;;2.03;;
19084;SDS011;9675;51.538;6.728;2024-03-23T09:25:04;4.40;;;1.33;;
19084;SDS011;9675;51.538;6.728;2024-03-23T09:27:30;3.40;;;0.67;;
19084;SDS011;9675;51.538;6.728;2024-03-23T09:29:58;4.07;;;1.53;;
19084;SDS011;9675;51.538;6.728;2024-03-23T09:32:25;5.87;;;1.20;;
19084;SDS011;9675;51.538;6.728;2024-03-23T09:34:53;6.10;;;2.00;;
19084;SDS011;9675;51.538;6.728;2024-03-23T09:37:19;5.77;;;1.47;;
19084;SDS011;9675;51.538;6.728;2024-03-23T09:39:46;5.63;;;1.80;;
19084;SDS011;9675;51.538;6.728;2024-03-23T09:42:12;6.07;;;1.80;;
19084;SDS011;9675;51.538;6.728;2024-03-23T09:44:40;7.07;;;2.30;;
19084;SDS011;9675;51.538;6.728;2024-03-23T09:47:06;12.93;;;1.93;;
19084;SDS011;9675;51.538;6.728;2024-03-23T09:49:35;3.60;;;1.73;;
19084;SDS011;9675;51.538;6.728;2024-03-23T09:52:04;6.17;;;1.70;;
19084;SDS011;9675;51.538;6.728;2024-03-23T09:54:31;7.00;;;1.90;;
19084;SDS011;9675;51.538;6.728;2024-03-23T09:56:58;3.90;;;1.70;;
19084;SDS011;9675;51.538;6.728;2024-03-23T09:59:25;6.03;;;1.53;;
19084;SDS011;9675;51.538;6.728;2024-03-23T10:01:51;4.63;;;1.17;;
19084;SDS011;9675;51.538;6.728;2024-03-23T10:04:37;2.87;;;0.87;;
19084;SDS011;9675;51.538;6.728;2024-03-23T10:07:12;0.40;;;0.40;;
19084;SDS011;9675;51.538;6.728;2024-03-23T10:09:42;6.50;;;1.57;;
19084;SDS011;9675;51.538;6.728;2024-03-23T10:12:09;6.90;;;1.10;;
19084;SDS011;9675;51.538;6.728;2024-03-23T10:14:37;2.20;;;1.13;;
19084;SDS011;9675;51.538;6.728;2024-03-23T10:17:13;4.07;;;1.07;;
19084;SDS011;9675;51.538;6.728;2024-03-23T10:19:45;5.27;;;0.90;;
19084;SDS011;9675;51.538;6.728;2024-03-23T10:22:13;7.37;;;1.43;;
19084;SDS011;9675;51.538;6.728;2024-03-23T10:24:44;8.03;;;1.03;;
19084;SDS011;9675;51.538;6.728;2024-03-23T10:27:12;3.33;;;1.47;;
19084;SDS011;9675;51.538;6.728;2024-03-23T10:29:43;6.53;;;1.07;;
19084;SDS011;9675;51.538;6.728;2024-03-23T10:32:10;6.33;;;1.47;;
19084;SDS011;9675;51.538;6.728;2024-03-23T10:34:38;3.40;;;1.37;;
19084;SDS011;9675;51.538;6.728;2024-03-23T10:37:06;6.97;;;0.97;;
19084;SDS011;9675;51.538;6.728;2024-03-23T10:39:35;3.57;;;1.00;;
19084;SDS011;9675;51.538;6.728;2024-03-23T10:42:03;0.83;;;0.40;;
19084;SDS011;9675;51.538;6.728;2024-03-23T10:44:32;1.30;;;0.60;;
19084;SDS011;9675;51.538;6.728;2024-03-23T10:46:59;3.37;;;0.50;;
19084;SDS011;9675;51.538;6.728;2024-03-23T10:49:28;2.97;;;0.57;;
19084;SDS011;9675;51.538;6.728;2024-03-23T10:51:57;0.77;;;0.30;;
19084;SDS011;9675;51.538;6.728;2024-03-23T10:54:26;3.13;;;0.60;;
19084;SDS011;9675;51.538;6.728;2024-03-23T10:56:56;4.67;;;0.70;;
19084;SDS011;9675;51.538;6.728;2024-03-23T10:59:29;1.20;;;0.80;;
19084;SDS011;9675;51.538;6.728;2024-03-23T11:01:58;4.73;;;0.50;;
19084;SDS011;9675;51.538;6.728;2024-03-23T11:04:31;2.00;;;0.40;;
19084;SDS011;9675;51.538;6.728;2024-03-23T11:06:59;0.57;;;0.47;;
19084;SDS011;9675;51.538;6.728;2024-03-23T11:09:40;2.73;;;0.67;;
19084;SDS011;9675;51.538;6.728;2024-03-23T11:12:26;3.20;;;0.50;;
19084;SDS011;9675;51.538;6.728;2024-03-23T11:14:57;1.03;;;0.70;;
19084;SDS011;9675;51.538;6.728;2024-03-23T11:17:27;3.97;;;1.47;;
19084;SDS011;9675;51.538;6.728;2024-03-23T11:19:55;4.90;;;0.97;;
19084;SDS011;9675;51.538;6.728;2024-03-23T11:22:41;1.17;;;0.37;;
19084;SDS011;9675;51.538;6.728;2024-03-23T11:25:22;7.33;;;1.03;;
19084;SDS011;9675;51.538;6.728;2024-03-23T11:27:50;6.50;;;1.20;;
19084;SDS011;9675;51.538;6.728;2024-03-23T11:30:19;4.37;;;1.37;;
19084;SDS011;9675;51.538;6.728;2024-03-23T11:32:47;4.03;;;0.87;;
19084;SDS011;9675;51.538;6.728;2024-03-23T11:35:25;7.10;;;1.30;;
19084;SDS011;9675;51.538;6.728;2024-03-23T11:38:02;3.30;;;0.80;;
19084;SDS011;9675;51.538;6.728;2024-03-23T11:40:32;4.10;;;1.00;;
19084;SDS011;9675;51.538;6.728;2024-03-23T11:43:00;1.30;;;1.00;;
19084;SDS011;9675;51.538;6.728;2024-03-23T11:45:29;2.70;;;0.50;;
19084;SDS011;9675;51.538;6.728;2024-03-23T11:48:04;3.73;;;1.60;;
19084;SDS011;9675;51.538;6.728;2024-03-23T11:50:34;1.27;;;0.37;;
19084;SDS011;9675;51.538;6.728;2024-03-23T11:53:11;3.07;;;0.80;;
19084;SDS011;9675;51.538;6.728;2024-03-23T11:55:43;7.23;;;0.97;;
19084;SDS011;9675;51.538;6.728;2024-03-23T11:58:12;1.27;;;0.63;;
19084;SDS011;9675;51.538;6.728;2024-03-23T12:00:40;1.83;;;0.80;;
19084;SDS011;9675;51.538;6.728;2024-03-23T12:03:06;5.27;;;1.30;;
19084;SDS011;9675;51.538;6.728;2024-03-23T12:05:35;4.47;;;1.13;;
19084;SDS011;9675;51.538;6.728;2024-03-23T12:08:19;5.37;;;1.23;;
19084;SDS011;9675;51.538;6.728;2024-03-23T12:10:51;2.47;;;0.70;;
19084;SDS011;9675;51.538;6.728;2024-03-23T12:13:30;2.07;;;0.77;;
19084;SDS011;9675;51.538;6.728;2024-03-23T12:16:09;4.13;;;0.80;;
19084;SDS011;9675;51.538;6.728;2024-03-23T12:18:37;1.23;;;0.50;;
19084;SDS011;9675;51.538;6.728;2024-03-23T12:21:06;2.43;;;0.60;;
19084;SDS011;9675;51.538;6.728;2024-03-23T12:23:33;1.97;;;0.60;;
19084;SDS011;9675;51.538;6.728;2024-03-23T12:26:02;0.70;;;0.50;;
19084;SDS011;9675;51.538;6.728;2024-03-23T12:28:29;5.77;;;0.67;;
19084;SDS011;9675;51.538;6.728;2024-03-23T12:30:56;7.77;;;1.40;;
19084;SDS011;9675;51.538;6.728;2024-03-23T12:33:22;6.27;;;0.87;;
19084;SDS011;9675;51.538;6.728;2024-03-23T12:35:49;3.80;;;1.07;;
19084;SDS011;9675;51.538;6.728;2024-03-23T12:38:16;5.17;;;0.83;;
19084;SDS011;9675;51.538;6.728;2024-03-23T12:40:46;5.33;;;1.37;;
19084;SDS011;9675;51.538;6.728;2024-03-23T12:43:14;3.13;;;0.80;;
19084;SDS011;9675;51.538;6.728;2024-03-23T12:45:41;3.53;;;0.87;;
19084;SDS011;9675;51.538;6.728;2024-03-23T12:48:12;3.17;;;1.00;;
19084;SDS011;9675;51.538;6.728;2024-03-23T12:50:39;6.17;;;1.30;;
19084;SDS011;9675;51.538;6.728;2024-03-23T12:53:05;8.00;;;1.20;;
19084;SDS011;9675;51.538;6.728;2024-03-23T12:55:34;4.93;;;1.27;;
19084;SDS011;9675;51.538;6.728;2024-03-23T12:58:00;6.23;;;0.97;;
19084;SDS011;9675;51.538;6.728;2024-03-23T13:00:29;4.93;;;0.93;;
19084;SDS011;9675;51.538;6.728;2024-03-23T13:02:59;5.40;;;0.90;;
19084;SDS011;9675;51.538;6.728;2024-03-23T13:05:26;4.47;;;0.83;;
19084;SDS011;9675;51.538;6.728;2024-03-23T13:07:53;2.00;;;0.80;;
19084;SDS011;9675;51.538;6.728;2024-03-23T13:10:20;1.70;;;0.90;;
19084;SDS011;9675;51.538;6.728;2024-03-23T13:12:46;3.17;;;0.80;;
19084;SDS011;9675;51.538;6.728;2024-03-23T13:15:13;4.90;;;1.47;;
19084;SDS011;9675;51.538;6.728;2024-03-23T13:17:43;3.07;;;1.00;;
19084;SDS011;9675;51.538;6.728;2024-03-23T13:20:10;2.27;;;0.80;;
19084;SDS011;9675;51.538;6.728;2024-03-23T13:22:39;4.93;;;1.10;;
19084;SDS011;9675;51.538;6.728;2024-03-23T13:25:07;3.23;;;0.57;;
19084;SDS011;9675;51.538;6.728;2024-03-23T13:27:33;2.63;;;1.23;;
19084;SDS011;9675;51.538;6.728;2024-03-23T13:30:00;4.77;;;1.10;;
19084;SDS011;9675;51.538;6.728;2024-03-23T13:32:28;2.50;;;0.77;;
19084;SDS011;9675;51.538;6.728;2024-03-23T13:34:57;2.93;;;0.80;;
19084;SDS011;9675;51.538;6.728;2024-03-23T13:37:23;0.70;;;0.40;;
19084;SDS011;9675;51.538;6.728;2024-03-23T13:39:50;2.57;;;0.60;;
19084;SDS011;9675;51.538;6.728;2024-03-23T13:42:16;3.67;;;1.00;;
19084;SDS011;9675;51.538;6.728;2024-03-23T13:44:43;5.37;;;0.80;;
19084;SDS011;9675;51.538;6.728;2024-03-23T13:47:09;1.07;;;0.40;;
19084;SDS011;9675;51.538;6.728;2024-03-23T13:49:36;2.27;;;0.93;;
19084;SDS011;9675;51.538;6.728;2024-03-23T13:52:04;1.70;;;0.53;;
19084;SDS011;9675;51.538;6.728;2024-03-23T13:54:32;1.13;;;0.40;;
19084;SDS011;9675;51.538;6.728;2024-03-23T13:56:58;4.47;;;0.50;;
19084;SDS011;9675;51.538;6.728;2024-03-23T13:59:25;4.67;;;0.97;;
19084;SDS011;9675;51.538;6.728;2024-03-23T14:01:51;3.37;;;0.50;;
19084;SDS011;9675;51.538;6.728;2024-03-23T14:04:18;2.00;;;0.53;;
19084;SDS011;9675;51.538;6.728;2024-03-23T14:06:45;5.30;;;0.73;;
19084;SDS011;9675;51.538;6.728;2024-03-23T14:09:14;1.60;;;0.47;;
19084;SDS011;9675;51.538;6.728;2024-03-23T14:11:45;2.13;;;0.60;;
19084;SDS011;9675;51.538;6.728;2024-03-23T14:14:12;5.23;;;0.93;;
19084;SDS011;9675;51.538;6.728;2024-03-23T14:16:41;3.47;;;0.63;;
19084;SDS011;9675;51.538;6.728;2024-03-23T14:19:09;8.93;;;0.50;;
19084;SDS011;9675;51.538;6.728;2024-03-23T14:21:35;1.40;;;0.40;;
19084;SDS011;9675;51.538;6.728;2024-03-23T14:24:03;2.30;;;0.70;;
19084;SDS011;9675;51.538;6.728;2024-03-23T14:26:31;1.10;;;0.60;;
19084;SDS011;9675;51.538;6.728;2024-03-23T14:28:58;1.97;;;0.50;;
19084;SDS011;9675;51.538;6.728;2024-03-23T14:31:25;4.00;;;0.70;;
19084;SDS011;9675;51.538;6.728;2024-03-23T14:33:52;0.93;;;0.30;;
19084;SDS011;9675;51.538;6.728;2024-03-23T14:36:18;2.47;;;0.50;;
19084;SDS011;9675;51.538;6.728;2024-03-23T14:38:46;0.77;;;0.23;;
19084;SDS011;9675;51.538;6.728;2024-03-23T14:41:13;3.20;;;0.60;;
19084;SDS011;9675;51.538;6.728;2024-03-23T14:43:42;4.90;;;0.57;;
19084;SDS011;9675;51.538;6.728;2024-03-23T14:46:09;5.60;;;0.60;;
19084;SDS011;9675;51.538;6.728;2024-03-23T14:48:37;3.10;;;0.80;;
19084;SDS011;9675;51.538;6.728;2024-03-23T14:51:04;2.43;;;0.67;;
19084;SDS011;9675;51.538;6.728;2024-03-23T14:53:33;1.07;;;0.50;;
19084;SDS011;9675;51.538;6.728;2024-03-23T14:56:01;1.47;;;0.60;;
19084;SDS011;9675;51.538;6.728;2024-03-23T14:58:29;5.30;;;0.30;;
19084;SDS011;9675;51.538;6.728;2024-03-23T15:01:00;1.80;;;0.43;;
19084;SDS011;9675;51.538;6.728;2024-03-23T15:03:28;3.60;;;0.30;;
19084;SDS011;9675;51.538;6.728;2024-03-23T15:05:55;4.03;;;0.63;;
19084;SDS011;9675;51.538;6.728;2024-03-23T15:08:23;2.93;;;0.63;;
19084;SDS011;9675;51.538;6.728;2024-03-23T15:10:50;4.10;;;0.80;;
19084;SDS011;9675;51.538;6.728;2024-03-23T15:13:17;3.83;;;1.00;;
19084;SDS011;9675;51.538;6.728;2024-03-23T15:15:44;2.10;;;0.23;;
19084;SDS011;9675;51.538;6.728;2024-03-23T15:18:12;1.90;;;0.60;;
19084;SDS011;9675;51.538;6.728;2024-03-23T15:20:40;1.57;;;0.40;;
19084;SDS011;9675;51.538;6.728;2024-03-23T15:23:06;2.80;;;0.60;;
19084;SDS011;9675;51.538;6.728;2024-03-23T15:25:33;1.30;;;0.30;;
19084;SDS011;9675;51.538;6.728;2024-03-23T15:27:59;2.20;;;0.80;;
19084;SDS011;9675;51.538;6.728;2024-03-23T15:30:27;3.77;;;0.67;;
19084;SDS011;9675;51.538;6.728;2024-03-23T15:32:53;0.93;;;0.40;;
19084;SDS011;9675;51.538;6.728;2024-03-23T15:35:21;3.50;;;0.50;;
19084;SDS011;9675;51.538;6.728;2024-03-23T15:37:48;4.30;;;0.63;;
19084;SDS011;9675;51.538;6.728;2024-03-23T15:40:16;1.87;;;0.30;;
19084;SDS011;9675;51.538;6.728;2024-03-23T15:42:42;6.23;;;1.03;;
19084;SDS011;9675;51.538;6.728;2024-03-23T15:45:09;5.27;;;0.80;;
19084;SDS011;9675;51.538;6.728;2024-03-23T15:47:36;3.87;;;0.60;;
19084;SDS011;9675;51.538;6.728;2024-03-23T15:50:04;2.20;;;0.40;;
19084;SDS011;9675;51.538;6.728;2024-03-23T15:52:35;0.97;;;0.50;;
19084;SDS011;9675;51.538;6.728;2024-03-23T15:55:02;1.00;;;0.43;;
19084;SDS011;9675;51.538;6.728;2024-03-23T15:57:31;2.30;;;0.63;;
19084;SDS011;9675;51.538;6.728;2024-03-23T16:00:00;3.50;;;1.13;;